sensor_id;sensor_type;location;lat;lon;timestamp;temperature;humidity
10692;DHT22;5396;50.950;6.988;2022-09-03T00:00:17;17.40;1.00
10692;DHT22;5396;50.950;6.988;2022-09-03T00:05:28;17.30;99.90
10692;DHT22;5396;50.950;6.988;2022-09-03T00:10:45;17.30;99.90
10692;DHT22;5396;50.950;6.988;2022-09-03T00:13:36;17.30;1.00
10692;DHT22;5396;50.950;6.988;2022-09-03T00:16:07;17.30;99.90
10692;DHT22;5396;50.950;6.988;2022-09-03T00:18:42;17.30;99.90
10692;DHT22;5396;50.950;6.988;2022-09-03T00:21:16;17.30;99.90
10692;DHT22;5396;50.950;6.988;2022-09-03T00:23:47;17.20;99.90
10692;DHT22;5396;50.950;6.988;2022-09-03T00:29:02;17.20;1.00
10692;DHT22;5396;50.950;6.988;2022-09-03T00:31:47;17.10;1.00
10692;DHT22;5396;50.950;6.988;2022-09-03T00:34:22;17.10;99.90
10692;DHT22;5396;50.950;6.988;2022-09-03T00:36:52;17.10;1.00
10692;DHT22;5396;50.950;6.988;2022-09-03T00:39:20;17.10;99.90
10692;DHT22;5396;50.950;6.988;2022-09-03T00:47:37;17.10;99.90
10692;DHT22;5396;50.950;6.988;2022-09-03T01:00:54;16.90;99.90
10692;DHT22;5396;50.950;6.988;2022-09-03T01:06:18;16.90;99.90
10692;DHT22;5396;50.950;6.988;2022-09-03T01:09:07;16.90;1.00
10692;DHT22;5396;50.950;6.988;2022-09-03T01:25:14;16.70;1.00
10692;DHT22;5396;50.950;6.988;2022-09-03T01:28:03;16.70;99.90
10692;DHT22;5396;50.950;6.988;2022-09-03T01:30:38;16.70;1.00
10692;DHT22;5396;50.950;6.988;2022-09-03T01:33:26;16.70;1.00
10692;DHT22;5396;50.950;6.988;2022-09-03T01:36:12;16.60;26.90
10692;DHT22;5396;50.950;6.988;2022-09-03T01:38:49;16.60;55.70
10692;DHT22;5396;50.950;6.988;2022-09-03T01:53:12;16.60;30.00
10692;DHT22;5396;50.950;6.988;2022-09-03T01:55:59;16.50;49.50
10692;DHT22;5396;50.950;6.988;2022-09-03T01:58:44;16.60;57.70
10692;DHT22;5396;50.950;6.988;2022-09-03T02:01:21;16.50;81.20
10692;DHT22;5396;50.950;6.988;2022-09-03T02:03:49;16.50;64.00
10692;DHT22;5396;50.950;6.988;2022-09-03T02:06:16;16.40;57.70
10692;DHT22;5396;50.950;6.988;2022-09-03T02:08:45;16.40;63.30
10692;DHT22;5396;50.950;6.988;2022-09-03T02:11:10;16.30;59.30
10692;DHT22;5396;50.950;6.988;2022-09-03T02:13:41;16.30;67.00
10692;DHT22;5396;50.950;6.988;2022-09-03T02:16:20;16.30;72.20
10692;DHT22;5396;50.950;6.988;2022-09-03T02:18:50;16.30;99.50
10692;DHT22;5396;50.950;6.988;2022-09-03T02:21:19;16.30;75.90
10692;DHT22;5396;50.950;6.988;2022-09-03T02:23:46;16.20;65.40
10692;DHT22;5396;50.950;6.988;2022-09-03T02:26:15;16.20;75.40
10692;DHT22;5396;50.950;6.988;2022-09-03T02:28:42;16.20;85.70
10692;DHT22;5396;50.950;6.988;2022-09-03T02:31:07;16.20;80.60
10692;DHT22;5396;50.950;6.988;2022-09-03T02:33:39;16.20;69.00
10692;DHT22;5396;50.950;6.988;2022-09-03T02:36:07;16.10;73.10
10692;DHT22;5396;50.950;6.988;2022-09-03T02:38:34;16.10;72.30
10692;DHT22;5396;50.950;6.988;2022-09-03T02:40:59;16.10;73.50
10692;DHT22;5396;50.950;6.988;2022-09-03T02:47:06;16.10;90.30
10692;DHT22;5396;50.950;6.988;2022-09-03T02:49:31;16.00;77.50
10692;DHT22;5396;50.950;6.988;2022-09-03T02:52:03;16.00;90.80
10692;DHT22;5396;50.950;6.988;2022-09-03T02:54:37;16.00;93.90
10692;DHT22;5396;50.950;6.988;2022-09-03T02:57:16;16.00;97.70
10692;DHT22;5396;50.950;6.988;2022-09-03T02:59:42;16.00;95.20
10692;DHT22;5396;50.950;6.988;2022-09-03T03:02:11;16.00;99.90
10692;DHT22;5396;50.950;6.988;2022-09-03T03:04:37;16.00;99.90
10692;DHT22;5396;50.950;6.988;2022-09-03T03:07:04;15.90;99.90
10692;DHT22;5396;50.950;6.988;2022-09-03T03:09:30;15.90;99.90
10692;DHT22;5396;50.950;6.988;2022-09-03T03:11:55;15.90;98.00
10692;DHT22;5396;50.950;6.988;2022-09-03T03:14:21;15.90;99.90
10692;DHT22;5396;50.950;6.988;2022-09-03T03:16:48;16.00;99.90
10692;DHT22;5396;50.950;6.988;2022-09-03T03:19:14;16.00;99.90
10692;DHT22;5396;50.950;6.988;2022-09-03T03:21:39;16.00;99.90
10692;DHT22;5396;50.950;6.988;2022-09-03T03:24:05;16.00;99.90
10692;DHT22;5396;50.950;6.988;2022-09-03T03:26:31;16.10;99.90
10692;DHT22;5396;50.950;6.988;2022-09-03T03:28:59;16.00;99.90
10692;DHT22;5396;50.950;6.988;2022-09-03T03:31:25;16.00;99.90
10692;DHT22;5396;50.950;6.988;2022-09-03T03:33:57;15.90;99.90
10692;DHT22;5396;50.950;6.988;2022-09-03T03:36:25;15.90;99.90
10692;DHT22;5396;50.950;6.988;2022-09-03T03:38:55;15.80;99.90
10692;DHT22;5396;50.950;6.988;2022-09-03T03:41:23;15.80;99.90
10692;DHT22;5396;50.950;6.988;2022-09-03T03:43:53;15.80;99.90
10692;DHT22;5396;50.950;6.988;2022-09-03T03:46:20;15.80;99.90
10692;DHT22;5396;50.950;6.988;2022-09-03T03:48:48;15.80;99.90
10692;DHT22;5396;50.950;6.988;2022-09-03T03:51:14;15.70;99.90
10692;DHT22;5396;50.950;6.988;2022-09-03T03:53:39;15.70;99.90
10692;DHT22;5396;50.950;6.988;2022-09-03T03:56:08;15.70;99.90
10692;DHT22;5396;50.950;6.988;2022-09-03T03:58:34;15.70;99.90
10692;DHT22;5396;50.950;6.988;2022-09-03T04:01:06;15.70;99.90
10692;DHT22;5396;50.950;6.988;2022-09-03T04:03:33;15.70;99.90
10692;DHT22;5396;50.950;6.988;2022-09-03T04:05:59;15.70;99.90
10692;DHT22;5396;50.950;6.988;2022-09-03T04:08:26;15.70;99.90
10692;DHT22;5396;50.950;6.988;2022-09-03T04:10:52;15.70;99.90
10692;DHT22;5396;50.950;6.988;2022-09-03T04:13:18;15.70;99.90
10692;DHT22;5396;50.950;6.988;2022-09-03T04:15:44;15.70;99.90
10692;DHT22;5396;50.950;6.988;2022-09-03T04:18:10;15.70;99.90
10692;DHT22;5396;50.950;6.988;2022-09-03T04:20:36;15.70;99.90
10692;DHT22;5396;50.950;6.988;2022-09-03T04:23:04;15.80;99.90
10692;DHT22;5396;50.950;6.988;2022-09-03T04:25:30;15.80;99.90
10692;DHT22;5396;50.950;6.988;2022-09-03T04:27:56;15.80;99.90
10692;DHT22;5396;50.950;6.988;2022-09-03T04:30:21;15.80;99.90
10692;DHT22;5396;50.950;6.988;2022-09-03T04:32:50;15.90;99.90
10692;DHT22;5396;50.950;6.988;2022-09-03T04:35:21;15.90;99.90
10692;DHT22;5396;50.950;6.988;2022-09-03T04:37:47;15.80;99.90
10692;DHT22;5396;50.950;6.988;2022-09-03T04:40:13;15.80;99.90
10692;DHT22;5396;50.950;6.988;2022-09-03T04:42:38;15.80;99.90
10692;DHT22;5396;50.950;6.988;2022-09-03T04:45:05;15.80;99.90
10692;DHT22;5396;50.950;6.988;2022-09-03T04:47:31;15.80;99.90
10692;DHT22;5396;50.950;6.988;2022-09-03T04:49:57;15.80;99.90
10692;DHT22;5396;50.950;6.988;2022-09-03T04:52:22;15.80;99.90
10692;DHT22;5396;50.950;6.988;2022-09-03T04:54:49;15.80;99.90
10692;DHT22;5396;50.950;6.988;2022-09-03T04:57:14;15.80;99.90
10692;DHT22;5396;50.950;6.988;2022-09-03T04:59:40;15.80;99.90
10692;DHT22;5396;50.950;6.988;2022-09-03T05:02:07;15.80;99.90
10692;DHT22;5396;50.950;6.988;2022-09-03T05:04:33;15.80;99.90
10692;DHT22;5396;50.950;6.988;2022-09-03T05:06:59;15.80;99.90
10692;DHT22;5396;50.950;6.988;2022-09-03T05:09:24;15.80;99.90
10692;DHT22;5396;50.950;6.988;2022-09-03T05:11:50;15.90;99.90
10692;DHT22;5396;50.950;6.988;2022-09-03T05:14:15;15.90;99.90
10692;DHT22;5396;50.950;6.988;2022-09-03T05:16:41;15.90;99.90
10692;DHT22;5396;50.950;6.988;2022-09-03T05:19:06;15.90;99.90
10692;DHT22;5396;50.950;6.988;2022-09-03T05:21:33;15.90;99.90
10692;DHT22;5396;50.950;6.988;2022-09-03T05:24:03;16.00;99.90
10692;DHT22;5396;50.950;6.988;2022-09-03T05:26:32;16.00;99.90
10692;DHT22;5396;50.950;6.988;2022-09-03T05:29:00;16.10;99.90
10692;DHT22;5396;50.950;6.988;2022-09-03T05:31:28;16.10;99.90
10692;DHT22;5396;50.950;6.988;2022-09-03T05:33:56;16.10;99.90
10692;DHT22;5396;50.950;6.988;2022-09-03T05:36:25;16.10;99.90
10692;DHT22;5396;50.950;6.988;2022-09-03T05:38:51;16.20;99.90
10692;DHT22;5396;50.950;6.988;2022-09-03T05:41:21;16.20;99.90
10692;DHT22;5396;50.950;6.988;2022-09-03T05:43:48;16.20;99.90
10692;DHT22;5396;50.950;6.988;2022-09-03T05:46:20;16.20;99.90
10692;DHT22;5396;50.950;6.988;2022-09-03T05:48:46;16.30;99.90
10692;DHT22;5396;50.950;6.988;2022-09-03T05:51:14;16.30;99.90
10692;DHT22;5396;50.950;6.988;2022-09-03T05:53:44;16.40;99.90
10692;DHT22;5396;50.950;6.988;2022-09-03T05:56:18;16.40;99.90
10692;DHT22;5396;50.950;6.988;2022-09-03T05:58:46;16.50;99.90
10692;DHT22;5396;50.950;6.988;2022-09-03T06:01:14;16.60;99.90
10692;DHT22;5396;50.950;6.988;2022-09-03T06:03:41;16.70;99.90
10692;DHT22;5396;50.950;6.988;2022-09-03T06:06:08;16.80;99.90
10692;DHT22;5396;50.950;6.988;2022-09-03T06:08:35;17.00;99.90
10692;DHT22;5396;50.950;6.988;2022-09-03T06:11:03;17.20;99.90
10692;DHT22;5396;50.950;6.988;2022-09-03T06:13:30;17.30;99.90
10692;DHT22;5396;50.950;6.988;2022-09-03T06:15:57;17.40;99.90
10692;DHT22;5396;50.950;6.988;2022-09-03T06:18:26;17.50;99.90
10692;DHT22;5396;50.950;6.988;2022-09-03T06:21:00;17.60;99.90
10692;DHT22;5396;50.950;6.988;2022-09-03T06:23:27;17.70;99.90
10692;DHT22;5396;50.950;6.988;2022-09-03T06:28:27;17.80;99.90
10692;DHT22;5396;50.950;6.988;2022-09-03T06:30:57;17.90;99.90
10692;DHT22;5396;50.950;6.988;2022-09-03T06:33:23;18.00;99.90
10692;DHT22;5396;50.950;6.988;2022-09-03T06:35:55;18.10;99.90
10692;DHT22;5396;50.950;6.988;2022-09-03T06:38:25;18.10;99.90
10692;DHT22;5396;50.950;6.988;2022-09-03T06:40:53;18.20;99.90
10692;DHT22;5396;50.950;6.988;2022-09-03T06:43:19;18.30;99.90
10692;DHT22;5396;50.950;6.988;2022-09-03T06:45:55;18.30;99.90
10692;DHT22;5396;50.950;6.988;2022-09-03T06:48:21;18.40;99.90
10692;DHT22;5396;50.950;6.988;2022-09-03T06:53:33;18.60;99.90
10692;DHT22;5396;50.950;6.988;2022-09-03T06:56:02;18.60;99.90
10692;DHT22;5396;50.950;6.988;2022-09-03T06:58:40;18.70;99.90
10692;DHT22;5396;50.950;6.988;2022-09-03T07:01:13;18.70;99.90
10692;DHT22;5396;50.950;6.988;2022-09-03T07:03:40;18.80;99.90
10692;DHT22;5396;50.950;6.988;2022-09-03T07:06:11;18.80;99.90
10692;DHT22;5396;50.950;6.988;2022-09-03T07:08:37;18.80;99.90
10692;DHT22;5396;50.950;6.988;2022-09-03T07:11:11;18.90;99.90
10692;DHT22;5396;50.950;6.988;2022-09-03T07:13:39;18.90;99.90
10692;DHT22;5396;50.950;6.988;2022-09-03T07:16:08;18.90;99.90
10692;DHT22;5396;50.950;6.988;2022-09-03T07:18:35;19.10;99.90
10692;DHT22;5396;50.950;6.988;2022-09-03T07:21:02;19.20;99.90
10692;DHT22;5396;50.950;6.988;2022-09-03T07:23:29;19.20;99.90
10692;DHT22;5396;50.950;6.988;2022-09-03T07:25:56;19.30;99.90
10692;DHT22;5396;50.950;6.988;2022-09-03T07:28:22;19.40;99.90
10692;DHT22;5396;50.950;6.988;2022-09-03T07:30:49;19.40;99.90
10692;DHT22;5396;50.950;6.988;2022-09-03T07:33:15;19.40;99.90
10692;DHT22;5396;50.950;6.988;2022-09-03T07:35:41;19.40;99.90
10692;DHT22;5396;50.950;6.988;2022-09-03T07:38:07;19.40;99.90
10692;DHT22;5396;50.950;6.988;2022-09-03T07:40:34;19.40;99.90
10692;DHT22;5396;50.950;6.988;2022-09-03T07:43:00;19.50;99.90
10692;DHT22;5396;50.950;6.988;2022-09-03T07:45:32;19.60;99.90
10692;DHT22;5396;50.950;6.988;2022-09-03T07:47:58;19.70;99.90
10692;DHT22;5396;50.950;6.988;2022-09-03T07:50:24;19.80;99.90
10692;DHT22;5396;50.950;6.988;2022-09-03T07:52:56;19.90;99.90
10692;DHT22;5396;50.950;6.988;2022-09-03T07:55:22;20.10;99.90
10692;DHT22;5396;50.950;6.988;2022-09-03T07:57:48;20.20;99.90
10692;DHT22;5396;50.950;6.988;2022-09-03T08:00:14;20.30;99.90
10692;DHT22;5396;50.950;6.988;2022-09-03T08:02:40;20.40;99.90
10692;DHT22;5396;50.950;6.988;2022-09-03T08:05:06;20.40;99.90
10692;DHT22;5396;50.950;6.988;2022-09-03T08:07:31;20.50;99.90
10692;DHT22;5396;50.950;6.988;2022-09-03T08:09:57;20.50;99.90
10692;DHT22;5396;50.950;6.988;2022-09-03T08:12:23;20.40;99.90
10692;DHT22;5396;50.950;6.988;2022-09-03T08:14:49;20.30;99.90
10692;DHT22;5396;50.950;6.988;2022-09-03T08:17:15;20.30;99.90
10692;DHT22;5396;50.950;6.988;2022-09-03T08:19:41;20.30;99.90
10692;DHT22;5396;50.950;6.988;2022-09-03T08:22:08;20.30;99.90
10692;DHT22;5396;50.950;6.988;2022-09-03T08:24:34;20.30;99.90
10692;DHT22;5396;50.950;6.988;2022-09-03T08:27:00;20.30;99.90
10692;DHT22;5396;50.950;6.988;2022-09-03T08:29:26;20.40;99.90
10692;DHT22;5396;50.950;6.988;2022-09-03T08:31:52;20.40;99.90
10692;DHT22;5396;50.950;6.988;2022-09-03T08:34:18;20.30;99.90
10692;DHT22;5396;50.950;6.988;2022-09-03T08:36:44;20.30;99.90
10692;DHT22;5396;50.950;6.988;2022-09-03T08:39:11;20.30;99.90
10692;DHT22;5396;50.950;6.988;2022-09-03T08:47:25;20.30;99.90
10692;DHT22;5396;50.950;6.988;2022-09-03T08:52:43;20.40;99.90
10692;DHT22;5396;50.950;6.988;2022-09-03T08:55:21;20.40;99.90
10692;DHT22;5396;50.950;6.988;2022-09-03T08:58:12;20.40;99.90
10692;DHT22;5396;50.950;6.988;2022-09-03T09:06:11;20.30;99.90
10692;DHT22;5396;50.950;6.988;2022-09-03T09:11:40;20.50;99.90
10692;DHT22;5396;50.950;6.988;2022-09-03T09:17:07;20.40;99.90
10692;DHT22;5396;50.950;6.988;2022-09-03T09:22:32;20.40;99.90
10692;DHT22;5396;50.950;6.988;2022-09-03T09:25:05;20.40;99.90
10692;DHT22;5396;50.950;6.988;2022-09-03T09:27:33;20.30;99.90
10692;DHT22;5396;50.950;6.988;2022-09-03T09:30:00;20.10;99.90
10692;DHT22;5396;50.950;6.988;2022-09-03T09:32:28;19.90;99.90
10692;DHT22;5396;50.950;6.988;2022-09-03T09:34:55;19.70;99.90
10692;DHT22;5396;50.950;6.988;2022-09-03T09:37:21;19.50;99.90
10692;DHT22;5396;50.950;6.988;2022-09-03T09:39:58;19.30;99.90
10692;DHT22;5396;50.950;6.988;2022-09-03T09:42:24;19.20;99.90
10692;DHT22;5396;50.950;6.988;2022-09-03T09:44:50;19.10;99.90
10692;DHT22;5396;50.950;6.988;2022-09-03T09:47:32;19.00;99.90
10692;DHT22;5396;50.950;6.988;2022-09-03T09:50:01;18.90;99.90
10692;DHT22;5396;50.950;6.988;2022-09-03T09:52:28;19.00;99.90
10692;DHT22;5396;50.950;6.988;2022-09-03T09:55:12;18.90;99.90
10692;DHT22;5396;50.950;6.988;2022-09-03T09:57:38;18.90;99.90
10692;DHT22;5396;50.950;6.988;2022-09-03T10:00:15;18.90;99.90
10692;DHT22;5396;50.950;6.988;2022-09-03T10:02:49;18.90;99.90
10692;DHT22;5396;50.950;6.988;2022-09-03T10:05:20;18.90;99.90
10692;DHT22;5396;50.950;6.988;2022-09-03T10:08:02;19.00;99.90
10692;DHT22;5396;50.950;6.988;2022-09-03T10:10:30;19.10;99.90
10692;DHT22;5396;50.950;6.988;2022-09-03T10:13:08;19.10;99.90
10692;DHT22;5396;50.950;6.988;2022-09-03T10:21:05;19.60;99.90
10692;DHT22;5396;50.950;6.988;2022-09-03T10:24:00;19.80;99.90
10692;DHT22;5396;50.950;6.988;2022-09-03T10:26:30;20.00;99.90
10692;DHT22;5396;50.950;6.988;2022-09-03T10:28:59;20.10;99.90
10692;DHT22;5396;50.950;6.988;2022-09-03T10:35:02;20.30;99.90
10692;DHT22;5396;50.950;6.988;2022-09-03T10:40:50;20.70;99.90
10692;DHT22;5396;50.950;6.988;2022-09-03T10:46:32;21.00;99.90
10692;DHT22;5396;50.950;6.988;2022-09-03T10:49:27;21.40;99.90
10692;DHT22;5396;50.950;6.988;2022-09-03T10:52:37;21.80;99.90
10692;DHT22;5396;50.950;6.988;2022-09-03T11:00:23;22.20;99.90
10692;DHT22;5396;50.950;6.988;2022-09-03T11:05:39;22.30;99.90
10692;DHT22;5396;50.950;6.988;2022-09-03T11:11:23;22.50;99.90
10692;DHT22;5396;50.950;6.988;2022-09-03T11:13:57;22.70;99.90
10692;DHT22;5396;50.950;6.988;2022-09-03T11:16:39;22.90;99.90
10692;DHT22;5396;50.950;6.988;2022-09-03T11:19:08;23.10;99.90
10692;DHT22;5396;50.950;6.988;2022-09-03T11:21:37;23.10;99.90
10692;DHT22;5396;50.950;6.988;2022-09-03T11:24:21;23.30;99.90
10692;DHT22;5396;50.950;6.988;2022-09-03T11:27:20;23.20;99.90
10692;DHT22;5396;50.950;6.988;2022-09-03T11:32:46;23.20;99.90
10692;DHT22;5396;50.950;6.988;2022-09-03T11:38:02;23.50;99.90
10692;DHT22;5396;50.950;6.988;2022-09-03T11:40:33;23.70;99.90
10692;DHT22;5396;50.950;6.988;2022-09-03T11:46:12;23.90;99.90
10692;DHT22;5396;50.950;6.988;2022-09-03T11:48:49;24.00;99.90
10692;DHT22;5396;50.950;6.988;2022-09-03T11:54:02;24.00;99.90
10692;DHT22;5396;50.950;6.988;2022-09-03T11:56:30;24.10;99.90
10692;DHT22;5396;50.950;6.988;2022-09-03T12:01:46;24.40;99.90
10692;DHT22;5396;50.950;6.988;2022-09-03T12:04:24;24.40;99.90
10692;DHT22;5396;50.950;6.988;2022-09-03T12:07:15;24.50;99.90
10692;DHT22;5396;50.950;6.988;2022-09-03T12:20:46;24.50;99.90
10692;DHT22;5396;50.950;6.988;2022-09-03T12:23:13;24.40;99.90
10692;DHT22;5396;50.950;6.988;2022-09-03T12:25:51;24.40;99.90
10692;DHT22;5396;50.950;6.988;2022-09-03T12:28:21;24.40;99.90
10692;DHT22;5396;50.950;6.988;2022-09-03T12:30:48;24.40;99.90
10692;DHT22;5396;50.950;6.988;2022-09-03T12:33:18;24.50;99.90
10692;DHT22;5396;50.950;6.988;2022-09-03T12:35:58;24.60;99.90
10692;DHT22;5396;50.950;6.988;2022-09-03T12:38:26;24.60;99.90
10692;DHT22;5396;50.950;6.988;2022-09-03T12:40:53;24.70;99.90
10692;DHT22;5396;50.950;6.988;2022-09-03T12:43:19;24.70;99.90
10692;DHT22;5396;50.950;6.988;2022-09-03T12:45:51;24.80;99.90
10692;DHT22;5396;50.950;6.988;2022-09-03T12:48:18;24.90;99.90
10692;DHT22;5396;50.950;6.988;2022-09-03T12:50:45;25.00;99.90
10692;DHT22;5396;50.950;6.988;2022-09-03T12:53:20;25.10;99.90
10692;DHT22;5396;50.950;6.988;2022-09-03T12:55:52;25.20;99.90
10692;DHT22;5396;50.950;6.988;2022-09-03T12:58:36;25.40;99.90
10692;DHT22;5396;50.950;6.988;2022-09-03T13:01:17;26.40;99.90
10692;DHT22;5396;50.950;6.988;2022-09-03T13:03:49;28.70;99.90
10692;DHT22;5396;50.950;6.988;2022-09-03T13:06:27;30.20;99.90
10692;DHT22;5396;50.950;6.988;2022-09-03T13:09:02;31.10;57.10
10692;DHT22;5396;50.950;6.988;2022-09-03T13:11:32;31.60;53.20
10692;DHT22;5396;50.950;6.988;2022-09-03T13:14:05;32.20;50.40
10692;DHT22;5396;50.950;6.988;2022-09-03T13:27:38;34.00;41.10
10692;DHT22;5396;50.950;6.988;2022-09-03T13:30:53;33.90;39.00
10692;DHT22;5396;50.950;6.988;2022-09-03T13:33:22;33.60;39.60
10692;DHT22;5396;50.950;6.988;2022-09-03T13:35:59;33.90;38.50
10692;DHT22;5396;50.950;6.988;2022-09-03T13:38:42;34.30;37.50
10692;DHT22;5396;50.950;6.988;2022-09-03T13:41:28;35.40;35.50
10692;DHT22;5396;50.950;6.988;2022-09-03T13:44:02;35.50;34.50
10692;DHT22;5396;50.950;6.988;2022-09-03T13:49:49;36.90;30.90
10692;DHT22;5396;50.950;6.988;2022-09-03T13:53:39;36.80;29.60
10692;DHT22;5396;50.950;6.988;2022-09-03T13:55:47;36.80;28.30
10692;DHT22;5396;50.950;6.988;2022-09-03T13:58:27;35.80;28.40
10692;DHT22;5396;50.950;6.988;2022-09-03T14:03:43;36.20;27.90
10692;DHT22;5396;50.950;6.988;2022-09-03T14:19:56;36.40;26.50
10692;DHT22;5396;50.950;6.988;2022-09-03T14:25:15;36.80;25.70
10692;DHT22;5396;50.950;6.988;2022-09-03T14:27:41;36.70;25.50
10692;DHT22;5396;50.950;6.988;2022-09-03T14:30:34;36.30;25.80
10692;DHT22;5396;50.950;6.988;2022-09-03T14:36:11;36.80;24.40
10692;DHT22;5396;50.950;6.988;2022-09-03T14:38:56;36.40;24.60
10692;DHT22;5396;50.950;6.988;2022-09-03T14:41:52;35.20;25.10
10692;DHT22;5396;50.950;6.988;2022-09-03T14:44:30;34.50;25.30
10692;DHT22;5396;50.950;6.988;2022-09-03T14:47:11;33.00;26.00
10692;DHT22;5396;50.950;6.988;2022-09-03T15:00:41;28.10;31.50
10692;DHT22;5396;50.950;6.988;2022-09-03T15:11:16;27.40;33.90
10692;DHT22;5396;50.950;6.988;2022-09-03T15:14:08;27.50;33.90
10692;DHT22;5396;50.950;6.988;2022-09-03T15:17:00;27.60;34.20
10692;DHT22;5396;50.950;6.988;2022-09-03T15:25:30;27.30;36.40
10692;DHT22;5396;50.950;6.988;2022-09-03T15:31:02;27.20;36.40
10692;DHT22;5396;50.950;6.988;2022-09-03T15:36:48;27.10;37.00
10692;DHT22;5396;50.950;6.988;2022-09-03T15:39:21;26.70;37.10
10692;DHT22;5396;50.950;6.988;2022-09-03T15:42:05;26.60;37.70
10692;DHT22;5396;50.950;6.988;2022-09-03T15:44:59;26.50;38.00
10692;DHT22;5396;50.950;6.988;2022-09-03T15:50:47;26.20;38.70
10692;DHT22;5396;50.950;6.988;2022-09-03T15:53:01;26.10;39.30
10692;DHT22;5396;50.950;6.988;2022-09-03T15:55:41;26.10;39.60
10692;DHT22;5396;50.950;6.988;2022-09-03T15:58:19;26.00;40.20
10692;DHT22;5396;50.950;6.988;2022-09-03T16:03:45;25.80;41.30
10692;DHT22;5396;50.950;6.988;2022-09-03T16:06:31;25.70;41.00
10692;DHT22;5396;50.950;6.988;2022-09-03T16:14:59;25.50;42.20
10692;DHT22;5396;50.950;6.988;2022-09-03T16:20:17;25.40;43.90
10692;DHT22;5396;50.950;6.988;2022-09-03T16:22:58;25.40;44.50
10692;DHT22;5396;50.950;6.988;2022-09-03T16:28:13;25.40;45.00
10692;DHT22;5396;50.950;6.988;2022-09-03T16:33:36;25.20;47.40
10692;DHT22;5396;50.950;6.988;2022-09-03T16:41:35;24.90;52.80
10692;DHT22;5396;50.950;6.988;2022-09-03T16:47:04;24.50;98.40
10692;DHT22;5396;50.950;6.988;2022-09-03T16:49:44;24.40;99.90
10692;DHT22;5396;50.950;6.988;2022-09-03T16:55:02;24.00;99.90
10692;DHT22;5396;50.950;6.988;2022-09-03T16:58:04;23.50;99.90
10692;DHT22;5396;50.950;6.988;2022-09-03T17:04:29;23.10;99.90
10692;DHT22;5396;50.950;6.988;2022-09-03T17:10:02;22.70;99.90
10692;DHT22;5396;50.950;6.988;2022-09-03T17:12:41;22.60;99.90
10692;DHT22;5396;50.950;6.988;2022-09-03T17:15:25;22.40;99.90
10692;DHT22;5396;50.950;6.988;2022-09-03T17:22:59;22.20;99.90
10692;DHT22;5396;50.950;6.988;2022-09-03T17:25:35;22.10;99.90
10692;DHT22;5396;50.950;6.988;2022-09-03T17:34:07;22.10;99.90
10692;DHT22;5396;50.950;6.988;2022-09-03T17:36:38;22.00;99.90
10692;DHT22;5396;50.950;6.988;2022-09-03T17:42:16;21.80;99.90
10692;DHT22;5396;50.950;6.988;2022-09-03T17:47:41;21.60;99.90
10692;DHT22;5396;50.950;6.988;2022-09-03T17:50:24;21.40;99.90
10692;DHT22;5396;50.950;6.988;2022-09-03T17:52:57;21.20;99.90
10692;DHT22;5396;50.950;6.988;2022-09-03T17:55:35;21.00;99.90
10692;DHT22;5396;50.950;6.988;2022-09-03T18:03:31;20.60;99.90
10692;DHT22;5396;50.950;6.988;2022-09-03T18:06:03;20.50;99.90
10692;DHT22;5396;50.950;6.988;2022-09-03T18:09:01;20.50;99.90
10692;DHT22;5396;50.950;6.988;2022-09-03T18:11:38;20.40;99.90
10692;DHT22;5396;50.950;6.988;2022-09-03T18:14:43;20.30;99.90
10692;DHT22;5396;50.950;6.988;2022-09-03T18:17:26;20.20;99.90
10692;DHT22;5396;50.950;6.988;2022-09-03T18:20:10;20.20;99.90
10692;DHT22;5396;50.950;6.988;2022-09-03T18:23:20;20.10;99.90
10692;DHT22;5396;50.950;6.988;2022-09-03T18:26:30;20.00;99.90
10692;DHT22;5396;50.950;6.988;2022-09-03T18:29:32;20.00;99.90
10692;DHT22;5396;50.950;6.988;2022-09-03T18:32:18;19.90;99.90
10692;DHT22;5396;50.950;6.988;2022-09-03T18:35:03;19.90;99.90
10692;DHT22;5396;50.950;6.988;2022-09-03T18:37:47;19.80;99.90
10692;DHT22;5396;50.950;6.988;2022-09-03T18:40:41;19.70;99.90
10692;DHT22;5396;50.950;6.988;2022-09-03T18:46:44;19.60;99.90
10692;DHT22;5396;50.950;6.988;2022-09-03T18:49:57;19.50;99.90
10692;DHT22;5396;50.950;6.988;2022-09-03T18:52:55;19.40;99.90
10692;DHT22;5396;50.950;6.988;2022-09-03T19:01:55;19.20;99.90
10692;DHT22;5396;50.950;6.988;2022-09-03T19:11:01;19.10;99.90
10692;DHT22;5396;50.950;6.988;2022-09-03T19:13:48;19.10;99.90
10692;DHT22;5396;50.950;6.988;2022-09-03T19:20:00;19.10;99.90
10692;DHT22;5396;50.950;6.988;2022-09-03T19:22:45;19.00;99.90
10692;DHT22;5396;50.950;6.988;2022-09-03T19:25:30;19.00;99.90
10692;DHT22;5396;50.950;6.988;2022-09-03T19:28:21;19.00;99.90
10692;DHT22;5396;50.950;6.988;2022-09-03T19:37:52;18.90;99.90
10692;DHT22;5396;50.950;6.988;2022-09-03T19:44:14;18.80;99.90
10692;DHT22;5396;50.950;6.988;2022-09-03T19:47:01;18.80;99.90
10692;DHT22;5396;50.950;6.988;2022-09-03T19:53:17;18.80;99.90
10692;DHT22;5396;50.950;6.988;2022-09-03T19:56:08;18.70;99.90
10692;DHT22;5396;50.950;6.988;2022-09-03T19:59:15;18.70;99.90
10692;DHT22;5396;50.950;6.988;2022-09-03T20:02:01;18.70;99.90
10692;DHT22;5396;50.950;6.988;2022-09-03T20:04:57;18.70;99.90
10692;DHT22;5396;50.950;6.988;2022-09-03T20:07:42;18.70;99.90
10692;DHT22;5396;50.950;6.988;2022-09-03T20:10:29;18.70;99.90
10692;DHT22;5396;50.950;6.988;2022-09-03T20:15:41;18.70;99.90
10692;DHT22;5396;50.950;6.988;2022-09-03T20:18:14;18.70;99.90
10692;DHT22;5396;50.950;6.988;2022-09-03T20:20:51;18.60;99.90
10692;DHT22;5396;50.950;6.988;2022-09-03T20:26:00;18.60;99.90
10692;DHT22;5396;50.950;6.988;2022-09-03T20:31:16;18.50;99.90
10692;DHT22;5396;50.950;6.988;2022-09-03T20:39:43;18.50;99.90
10692;DHT22;5396;50.950;6.988;2022-09-03T20:42:57;18.50;99.90
10692;DHT22;5396;50.950;6.988;2022-09-03T20:50:38;18.40;99.90
10692;DHT22;5396;50.950;6.988;2022-09-03T21:01:37;18.30;99.90
10692;DHT22;5396;50.950;6.988;2022-09-03T21:07:18;18.30;99.90
10692;DHT22;5396;50.950;6.988;2022-09-03T21:09:59;18.20;99.90
10692;DHT22;5396;50.950;6.988;2022-09-03T21:18:07;18.10;99.90
10692;DHT22;5396;50.950;6.988;2022-09-03T21:23:24;18.10;99.90
10692;DHT22;5396;50.950;6.988;2022-09-03T21:25:57;18.10;99.90
10692;DHT22;5396;50.950;6.988;2022-09-03T21:28:38;18.10;99.90
10692;DHT22;5396;50.950;6.988;2022-09-03T21:31:27;18.00;99.90
10692;DHT22;5396;50.950;6.988;2022-09-03T21:33:59;18.00;99.90
10692;DHT22;5396;50.950;6.988;2022-09-03T21:36:30;18.00;99.90
10692;DHT22;5396;50.950;6.988;2022-09-03T21:44:52;17.90;99.90
10692;DHT22;5396;50.950;6.988;2022-09-03T21:47:22;17.90;99.90
10692;DHT22;5396;50.950;6.988;2022-09-03T21:52:41;17.80;99.90
10692;DHT22;5396;50.950;6.988;2022-09-03T21:55:18;17.80;99.90
10692;DHT22;5396;50.950;6.988;2022-09-03T21:57:57;17.80;99.90
10692;DHT22;5396;50.950;6.988;2022-09-03T22:00:27;17.80;99.90
10692;DHT22;5396;50.950;6.988;2022-09-03T22:02:57;17.80;99.90
10692;DHT22;5396;50.950;6.988;2022-09-03T22:05:27;17.80;99.90
10692;DHT22;5396;50.950;6.988;2022-09-03T22:08:21;17.80;99.90
10692;DHT22;5396;50.950;6.988;2022-09-03T22:11:18;17.70;99.90
10692;DHT22;5396;50.950;6.988;2022-09-03T22:13:51;17.70;99.90